Nantucket Memorial Airport
KACK : now visible

Airfield :











YOU CAN JOIN US ON...

 
LOGIN :

Register | Disclaimer

   EN    FR    IT 

 









Legend :    VFR   Marginal VFR   IFR   Intensive IFR   Very Intensive IFR
Visi :
Ceiling :
>= 8 km
>= 3000ft
5 to 8 km
1000 to 3000 ft
1500m to 5 km
500 to 1000 ft
800 to 1500m
200 to 500 ft
< 800m
< 200 ft
Symbols :   Thunderstorms  Fog  Heavy snow  Heavy precipitations  Wind > 20 kt






- Airport Elevation : 47 ft
- IATA code : ACK


KACK - Nantucket Memorial

CURRENT METAR :
  • 260553Z AUTO 16007KT 10SM 12/11 A2992 RMK AO2 SLP130 T01170111 10128 20106 50001

EXPIRED METARs :
  • 260453Z AUTO 18008KT 10SM 11/11 A2992 RMK AO2 SLP131 T01110106 402000106
  • 260353Z AUTO 16006KT 10SM 11/11 A2992 RMK AO2 SLP132 T01110106
  • 260253Z AUTO 15004KT 10SM 11/11 A2991 RMK AO2 SLP129 T01110106 50004
  • 260153Z AUTO 16005KT 10SM 12/11 A2992 RMK AO2 SLP132 T01170106

TAF KACK
Valid from the 26 at 06:00 until the 27 at 06:00 UTC


260530Z 2606/2706 18008KT P6SM SCT250
FM260800 19009KT 2SM BR BKN003
FM260900 20008KT 1SM BR BKN001
FM261000 20008KT 1/4SM FG BKN001
FM261300 20009KT P6SM BKN003
FM270500 14005KT P6SM OVC008
KZBW FIR / North America



MET'MAP, your aeronautical weather chart ! - Copyright ORBIFLY December 2007 - Disclaimer

ORBIFLY MET'MAP TEAM :

Programming & Development : Alexandra Zaïnal
Original concept : Baudouin d'Aumeries
Technical & hardware support : Manuel Goepfert
Assistance : Marc-Olivier Méhu




SOURCES & CREDITS :

   NOAA       Earth
Advisory